Time;durP1;ratioP1;P1;durP2;ratioP2;P2;SDS_P1;SDS_P2;PMS_P1;PMS_P2;Temp;Humidity;BMP_temperature;BMP_pressure;BME280_temperature;BME280_humidity;BME280_pressure;Samples;Min_cycle;Max_cycle;Signal;HPM_P1;HPM_P2
2023/09/02 00:01:33;;;;;;;2.00;0.90;;;;;;;15.39;100.00;149946.25;4964910;28;20228;-63
2023/09/02 00:04:02;;;;;;;2.60;0.97;;;;;;;15.29;100.00;149922.53;4967029;28;20569;-63
2023/09/02 00:06:33;;;;;;;3.60;1.20;;;;;;;15.28;100.00;149920.06;4955686;28;20698;-63
2023/09/02 00:09:00;;;;;;;3.27;1.03;;;;;;;15.20;100.00;149900.06;4967073;28;20239;-63
2023/09/02 00:11:27;;;;;;;1.10;0.70;;;;;;;15.15;100.00;149888.78;4968131;28;20323;-63
2023/09/02 00:13:55;;;;;;;3.30;1.00;;;;;;;15.09;100.00;149873.81;4963983;28;20243;-63
2023/09/02 00:16:21;;;;;;;3.53;0.90;;;;;;;15.04;100.00;149862.59;4966933;28;20253;-63
2023/09/02 00:18:48;;;;;;;3.27;1.10;;;;;;;15.03;100.00;149858.81;4964139;28;20226;-63
2023/09/02 00:21:14;;;;;;;3.57;0.97;;;;;;;14.99;100.00;149850.09;4966680;28;20250;-63
2023/09/02 00:23:45;;;;;;;2.47;0.87;;;;;;;14.94;100.00;149837.59;4963837;28;20569;-63
2023/09/02 00:26:12;;;;;;;3.17;1.03;;;;;;;14.90;100.00;149827.63;4966922;28;20232;-63
2023/09/02 00:28:40;;;;;;;3.73;1.10;;;;;;;14.87;100.00;149820.13;4954081;28;20229;-63
2023/09/02 00:31:08;;;;;;;2.43;1.03;;;;;;;14.88;100.00;149823.84;4954243;28;20256;-63
2023/09/02 00:33:34;;;;;;;2.40;0.80;;;;;;;14.90;100.00;149828.84;4962829;28;21067;-63
2023/09/02 00:36:01;;;;;;;1.80;1.07;;;;;;;14.87;100.00;149821.34;4954945;28;20236;-63
2023/09/02 00:38:28;;;;;;;3.10;1.00;;;;;;;14.87;100.00;149820.13;4981702;28;20220;-63
2023/09/02 00:41:00;;;;;;;7.97;1.37;;;;;;;14.83;100.00;149811.41;4963178;28;20323;-63
2023/09/02 00:43:30;;;;;;;5.70;1.37;;;;;;;14.82;100.00;149808.91;4965111;28;20314;-63
2023/09/02 00:45:57;;;;;;;6.80;1.50;;;;;;;14.82;100.00;149808.91;4978331;28;20253;-63
2023/09/02 00:48:25;;;;;;;2.20;0.90;;;;;;;14.83;100.00;149811.41;4966521;28;20715;-63
2023/09/02 00:50:51;;;;;;;5.30;1.10;;;;;;;14.82;100.00;149808.91;4963561;28;20235;-63
2023/09/02 00:53:18;;;;;;;2.30;1.00;;;;;;;14.81;100.00;149805.13;4955015;28;20229;-63
2023/09/02 00:55:47;;;;;;;4.07;1.30;;;;;;;14.83;100.00;149811.41;4963035;28;20572;-63
2023/09/02 00:58:13;;;;;;;8.43;1.37;;;;;;;14.82;100.00;149808.91;4981947;28;20243;-63
2023/09/02 01:00:40;;;;;;;1.63;1.00;;;;;;;14.78;100.00;149797.63;4961815;28;20224;-63
2023/09/02 01:03:07;;;;;;;5.83;1.20;;;;;;;14.77;100.00;149796.41;4981004;28;20289;-63
2023/09/02 01:05:35;;;;;;;2.50;0.93;;;;;;;14.80;100.00;149802.63;4978206;28;20236;-63
2023/09/02 01:08:04;;;;;;;8.83;1.40;;;;;;;14.73;100.00;149786.41;4965898;28;20232;-63
2023/09/02 01:10:35;;;;;;;5.87;1.20;;;;;;;14.71;100.00;149782.66;4963672;28;20254;-63
2023/09/02 01:13:02;;;;;;;6.67;2.13;;;;;;;14.68;100.00;149775.13;4978742;28;20586;-63
2023/09/02 01:15:29;;;;;;;7.50;1.20;;;;;;;14.63;100.00;149761.41;4981948;28;20223;-63
2023/09/02 01:17:55;;;;;;;3.53;1.20;;;;;;;14.59;100.00;149753.91;4978127;28;20244;-63
2023/09/02 01:20:25;;;;;;;2.47;1.20;;;;;;;14.56;100.00;149746.41;4966139;28;20227;-63
2023/09/02 01:23:19;;;;;;;2.13;1.30;;;;;;;14.55;100.00;149743.91;4963321;28;20613;-63
2023/09/02 01:26:02;;;;;;;2.10;1.17;;;;;;;14.55;100.00;149743.91;4954281;28;20236;-63
2023/09/02 01:28:34;;;;;;;5.13;1.30;;;;;;;14.63;100.00;149762.63;4952408;28;20242;-63
2023/09/02 01:31:04;;;;;;;1.40;1.00;;;;;;;14.70;100.00;149780.16;4962065;28;20247;-63
2023/09/02 01:33:30;;;;;;;4.07;1.40;;;;;;;14.62;100.00;149760.13;4964484;28;20227;-63
2023/09/02 01:36:00;;;;;;;4.80;1.17;;;;;;;14.69;100.00;149777.66;4963475;28;20241;-62
2023/09/02 01:38:29;;;;;;;3.47;1.27;;;;;;;14.63;100.00;149761.41;4965575;28;20591;-63
2023/09/02 01:40:57;;;;;;;2.77;1.20;;;;;;;14.59;100.00;149753.91;4962879;28;20229;-63
2023/09/02 01:43:25;;;;;;;2.37;1.10;;;;;;;14.56;100.00;149745.13;4963397;28;20660;-63
2023/09/02 01:45:55;;;;;;;4.23;1.40;;;;;;;14.55;100.00;149743.91;4952770;28;20277;-63
2023/09/02 01:48:23;;;;;;;3.50;1.27;;;;;;;14.53;100.00;149737.66;4957747;28;20232;-63
2023/09/02 01:50:53;;;;;;;6.43;1.33;;;;;;;14.54;100.00;149740.16;4969100;28;20809;-63
2023/09/02 01:53:19;;;;;;;1.80;1.10;;;;;;;14.59;100.00;149753.91;4968939;28;20223;-63
2023/09/02 01:55:46;;;;;;;1.33;0.90;;;;;;;14.68;100.00;149773.88;4982837;28;20234;-63
2023/09/02 01:58:13;;;;;;;2.97;1.23;;;;;;;14.66;100.00;149770.13;4984245;28;20229;-63
2023/09/02 02:00:40;;;;;;;3.07;1.20;;;;;;;14.74;100.00;149788.91;4981869;28;20243;-63
2023/09/02 02:03:15;;;;;;;3.43;1.30;;;;;;;14.71;100.00;149781.44;4969111;28;20247;-63
2023/09/02 02:05:48;;;;;;;3.67;0.90;;;;;;;14.64;100.00;149765.13;4966877;28;20227;-63
2023/09/02 02:08:20;;;;;;;4.17;1.13;;;;;;;14.64;100.00;149765.13;4968309;28;20227;-63
2023/09/02 02:10:50;;;;;;;4.40;1.30;;;;;;;14.56;100.00;149745.13;4958192;28;20239;-63
2023/09/02 02:13:17;;;;;;;2.80;1.00;;;;;;;14.45;100.00;149718.94;4967420;28;20232;-63
2023/09/02 02:15:43;;;;;;;3.23;1.00;;;;;;;14.38;100.00;149702.69;4985916;28;20342;-63
2023/09/02 02:18:11;;;;;;;7.60;1.07;;;;;;;14.35;100.00;149693.97;4984476;28;20565;-63
2023/09/02 02:20:50;;;;;;;2.90;1.13;;;;;;;14.29;100.00;149680.25;4982992;28;20213;-63
2023/09/02 02:23:16;;;;;;;3.23;1.20;;;;;;;14.25;100.00;149670.28;4984350;28;20238;-63
2023/09/02 02:25:43;;;;;;;2.07;1.30;;;;;;;14.19;100.00;149655.28;4982509;28;20232;-63
2023/09/02 02:28:09;;;;;;;1.50;1.00;;;;;;;14.15;100.00;149646.53;4959898;28;20243;-63
2023/09/02 02:30:36;;;;;;;3.33;1.17;;;;;;;14.10;100.00;149635.31;4964372;28;20250;-63
2023/09/02 02:33:03;;;;;;;2.83;1.03;;;;;;;14.12;100.00;149639.03;4957733;28;20239;-63
2023/09/02 02:35:32;;;;;;;3.77;1.40;;;;;;;14.15;100.00;149646.53;4957308;28;20618;-63
2023/09/02 02:37:59;;;;;;;8.10;1.37;;;;;;;14.12;100.00;149640.31;4957386;28;20231;-63
2023/09/02 02:40:26;;;;;;;3.67;1.17;;;;;;;14.08;100.00;149629.03;4953612;28;20234;-63
2023/09/02 02:42:52;;;;;;;1.93;1.30;;;;;;;14.01;100.00;149612.84;4979278;28;20251;-63
2023/09/02 02:45:19;;;;;;;2.13;1.00;;;;;;;14.03;100.00;149617.84;4957446;28;20235;-63
2023/09/02 02:47:46;;;;;;;3.10;1.10;;;;;;;13.97;100.00;149602.84;4966090;28;20230;-63
2023/09/02 02:50:13;;;;;;;2.00;1.10;;;;;;;13.96;100.00;149600.38;4982699;28;20230;-63
2023/09/02 02:52:44;;;;;;;3.07;1.20;;;;;;;13.88;100.00;149582.88;4956039;28;20709;-63
2023/09/02 02:55:11;;;;;;;3.40;1.20;;;;;;;13.88;100.00;149582.88;4983908;28;20245;-63
2023/09/02 02:57:38;;;;;;;2.97;0.87;;;;;;;13.88;100.00;149581.59;4965494;28;20222;-63
2023/09/02 03:00:07;;;;;;;5.77;1.30;;;;;;;13.90;100.00;149586.59;4983349;28;20716;-63
2023/09/02 03:02:34;;;;;;;4.80;1.33;;;;;;;13.81;100.00;149564.13;4964905;28;20223;-63
2023/09/02 03:05:00;;;;;;;3.20;1.13;;;;;;;13.82;100.00;149566.63;4955862;28;20287;-63
2023/09/02 03:07:29;;;;;;;8.37;1.30;;;;;;;13.80;100.00;149562.91;4958160;28;20274;-63
2023/09/02 03:09:57;;;;;;;3.90;1.50;;;;;;;13.80;100.00;149562.91;4981335;28;20229;-63
2023/09/02 03:12:23;;;;;;;1.97;1.03;;;;;;;13.81;100.00;149565.41;4966922;28;20671;-63
2023/09/02 03:14:50;;;;;;;2.17;1.30;;;;;;;13.85;100.00;149574.13;4980497;28;20655;-63
2023/09/02 03:17:20;;;;;;;2.37;1.00;;;;;;;13.78;100.00;149557.91;4983224;28;20230;-63
2023/09/02 03:19:49;;;;;;;2.67;1.13;;;;;;;13.73;100.00;149545.44;4981244;28;20230;-63
2023/09/02 03:22:16;;;;;;;2.07;1.07;;;;;;;13.71;100.00;149540.44;4960047;28;20244;-63
2023/09/02 03:24:45;;;;;;;5.53;1.40;;;;;;;13.68;100.00;149534.22;4979804;28;20231;-63
2023/09/02 03:27:13;;;;;;;3.87;1.10;;;;;;;13.64;100.00;149522.97;4966314;28;20235;-63
2023/09/02 03:29:40;;;;;;;3.37;1.10;;;;;;;13.60;100.00;149513.00;4949668;28;20220;-63
2023/09/02 03:32:07;;;;;;;4.10;1.17;;;;;;;13.60;100.00;149513.00;5268281;23;20691;-59
2023/09/02 03:34:34;;;;;;;5.73;1.43;;;;;;;13.60;100.00;149514.25;5001706;28;20611;-59
2023/09/02 03:37:01;;;;;;;4.70;1.40;;;;;;;13.61;100.00;149516.75;4980538;28;20768;-58
2023/09/02 03:39:28;;;;;;;5.37;1.20;;;;;;;13.61;100.00;149515.50;4988711;28;20235;-59
2023/09/02 03:41:54;;;;;;;2.57;1.43;;;;;;;13.57;100.00;149506.78;4990765;28;20305;-59
2023/09/02 03:44:22;;;;;;;3.83;1.20;;;;;;;13.55;100.00;149501.78;4986861;28;20218;-59
2023/09/02 03:46:51;;;;;;;2.63;0.93;;;;;;;13.59;100.00;149511.75;4955868;28;20630;-57
2023/09/02 03:49:18;;;;;;;2.27;1.20;;;;;;;13.58;100.00;149510.50;4986037;28;20296;-59
2023/09/02 03:51:45;;;;;;;2.20;1.40;;;;;;;13.51;100.00;149493.03;4982606;28;20676;-58
2023/09/02 03:54:12;;;;;;;3.20;1.27;;;;;;;13.53;100.00;149496.78;4970563;28;20231;-59
2023/09/02 03:56:39;;;;;;;3.67;1.33;;;;;;;13.58;100.00;149509.28;4968412;28;20258;-59
2023/09/02 03:59:07;;;;;;;2.07;1.37;;;;;;;13.55;100.00;149503.00;4968763;28;20672;-58
2023/09/02 04:01:35;;;;;;;5.27;1.33;;;;;;;13.64;100.00;149522.97;4971747;28;20234;-57
2023/09/02 04:04:03;;;;;;;5.60;1.40;;;;;;;13.58;100.00;149509.28;4968711;28;20336;-59
2023/09/02 04:06:34;;;;;;;3.57;1.17;;;;;;;13.57;100.00;149506.78;4988153;28;20261;-59
2023/09/02 04:09:00;;;;;;;6.50;1.90;;;;;;;13.54;100.00;149499.28;4985316;28;20779;-58
2023/09/02 04:11:30;;;;;;;4.07;1.20;;;;;;;13.50;100.00;149490.53;4986536;28;20232;-59
2023/09/02 04:13:57;;;;;;;3.00;1.50;;;;;;;13.55;100.00;149501.78;4965424;28;20313;-59
2023/09/02 04:16:24;;;;;;;5.40;1.30;;;;;;;13.50;100.00;149490.53;4971899;28;20239;-59
2023/09/02 04:18:52;;;;;;;3.20;1.20;;;;;;;13.47;100.00;149483.03;4972430;28;20256;-58
2023/09/02 04:21:20;;;;;;;2.67;1.23;;;;;;;13.41;100.00;149468.00;4968109;28;20233;-59
2023/09/02 04:23:47;;;;;;;6.10;1.27;;;;;;;13.38;100.00;149461.81;4981970;28;20253;-59
2023/09/02 04:26:21;;;;;;;2.67;1.13;;;;;;;13.34;100.00;149450.53;4968368;28;20649;-59
2023/09/02 04:28:47;;;;;;;3.50;1.33;;;;;;;13.31;100.00;149444.34;4970215;28;20413;-59
2023/09/02 04:31:17;;;;;;;4.77;1.30;;;;;;;13.36;100.00;149456.81;4959650;28;20645;-60
2023/09/02 04:33:44;;;;;;;5.30;1.40;;;;;;;13.43;100.00;149473.06;4970860;28;20263;-60
2023/09/02 04:36:14;;;;;;;2.63;1.00;;;;;;;13.37;100.00;149458.03;4984318;28;20233;-59
2023/09/02 04:38:43;;;;;;;3.50;1.40;;;;;;;13.38;100.00;149460.53;4981329;28;20601;-59
2023/09/02 04:41:10;;;;;;;3.20;1.20;;;;;;;13.38;100.00;149461.81;4967676;28;20228;-59
2023/09/02 04:43:39;;;;;;;2.83;1.50;;;;;;;13.37;100.00;149458.03;4953692;28;20278;-59
2023/09/02 04:46:08;;;;;;;3.40;1.30;;;;;;;13.35;100.00;149453.03;4983275;28;20241;-59
2023/09/02 04:48:36;;;;;;;1.63;1.17;;;;;;;13.40;100.00;149465.53;4965557;28;20217;-59
2023/09/02 04:51:07;;;;;;;4.70;1.50;;;;;;;13.48;100.00;149484.31;4982469;28;20230;-58
2023/09/02 04:53:36;;;;;;;2.53;1.20;;;;;;;13.49;100.00;149488.03;4954717;28;20227;-59
2023/09/02 04:56:05;;;;;;;2.00;1.33;;;;;;;13.51;100.00;149491.78;4969272;28;20237;-60
2023/09/02 04:58:34;;;;;;;2.73;1.43;;;;;;;13.58;100.00;149509.28;4953107;28;20241;-59
2023/09/02 05:01:10;;;;;;;2.10;1.33;;;;;;;13.63;100.00;149520.47;4968793;28;20878;-59
2023/09/02 05:03:39;;;;;;;3.63;1.10;;;;;;;13.65;100.00;149525.47;4955912;28;20698;-59
2023/09/02 05:06:07;;;;;;;9.10;1.27;;;;;;;13.73;100.00;149545.44;4968373;28;20336;-59
2023/09/02 05:08:39;;;;;;;8.80;1.30;;;;;;;13.85;100.00;149575.41;4965167;28;20927;-59
2023/09/02 05:11:07;;;;;;;4.37;1.50;;;;;;;13.93;100.00;149592.88;4972953;28;20235;-59
2023/09/02 05:13:34;;;;;;;2.70;1.13;;;;;;;13.98;100.00;149605.34;4981237;28;20232;-59
2023/09/02 05:16:00;;;;;;;2.90;1.13;;;;;;;13.96;100.00;149601.59;4982691;28;20238;-59
2023/09/02 05:18:28;;;;;;;1.87;1.30;;;;;;;14.00;100.00;149610.34;4957491;28;20619;-59
2023/09/02 05:20:56;;;;;;;2.13;1.20;;;;;;;14.02;100.00;149615.34;4952834;28;20585;-59
2023/09/02 05:23:23;;;;;;;3.93;1.20;;;;;;;14.03;100.00;149619.06;4969570;28;20245;-59
2023/09/02 05:25:57;;;;;;;2.93;1.50;;;;;;;14.07;100.00;149627.81;4979725;28;29307;-60
2023/09/02 05:28:25;;;;;;;3.20;1.00;;;;;;;14.09;100.00;149632.81;4983180;28;20232;-60
2023/09/02 05:30:54;;;;;;;5.57;1.70;;;;;;;14.17;100.00;149651.53;4964671;28;20246;-59
2023/09/02 05:33:21;;;;;;;2.83;1.30;;;;;;;14.17;100.00;149652.78;4984969;28;20751;-59
2023/09/02 05:35:48;;;;;;;5.60;1.20;;;;;;;14.18;100.00;149654.03;4982034;28;20246;-59
2023/09/02 05:38:14;;;;;;;1.67;1.07;;;;;;;14.23;100.00;149666.50;4984381;28;20231;-59
2023/09/02 05:40:42;;;;;;;2.10;1.10;;;;;;;14.25;100.00;149670.28;4981931;28;20230;-59
2023/09/02 05:43:10;;;;;;;3.60;1.20;;;;;;;14.25;100.00;149671.50;4965352;28;20260;-59
2023/09/02 05:45:37;;;;;;;3.07;1.20;;;;;;;14.29;100.00;149680.25;4982098;28;21264;-59
2023/09/02 05:48:04;;;;;;;5.13;1.50;;;;;;;14.30;100.00;149683.97;4957963;28;20238;-59
2023/09/02 05:50:31;;;;;;;3.80;1.30;;;;;;;14.38;100.00;149702.69;4983612;28;20232;-59
2023/09/02 05:52:57;;;;;;;9.97;1.20;;;;;;;14.45;100.00;149720.16;4980967;28;20237;-60
2023/09/02 05:55:24;;;;;;;1.90;1.00;;;;;;;14.49;100.00;149728.94;4983236;28;20591;-60
2023/09/02 05:57:50;;;;;;;5.40;1.10;;;;;;;14.50;100.00;149731.44;4981580;28;20229;-60
2023/09/02 06:00:19;;;;;;;2.30;1.30;;;;;;;14.54;100.00;149740.16;4984583;28;20268;-60
2023/09/02 06:02:45;;;;;;;6.03;1.30;;;;;;;14.56;100.00;149745.13;4980301;28;20692;-60
2023/09/02 06:05:12;;;;;;;1.50;1.03;;;;;;;14.60;100.00;149755.13;4984252;28;20229;-60
2023/09/02 06:07:38;;;;;;;4.17;1.23;;;;;;;14.61;100.00;149758.91;4980788;28;20241;-59
2023/09/02 06:10:05;;;;;;;3.23;1.50;;;;;;;14.64;100.00;149765.13;4984509;28;20226;-59
2023/09/02 06:12:32;;;;;;;2.90;1.20;;;;;;;14.70;100.00;149778.94;4982607;28;20234;-60
2023/09/02 06:14:58;;;;;;;2.83;1.27;;;;;;;14.74;100.00;149788.91;4981852;28;20233;-59
2023/09/02 06:17:30;;;;;;;10.13;2.27;;;;;;;14.82;100.00;149807.63;4984455;28;20241;-59
2023/09/02 06:19:57;;;;;;;3.40;1.47;;;;;;;14.84;100.00;149813.84;4981079;28;20230;-59
2023/09/02 06:22:24;;;;;;;6.30;1.40;;;;;;;14.88;100.00;149823.84;4983138;28;20708;-59
2023/09/02 06:24:50;;;;;;;3.13;1.70;;;;;;;14.96;100.00;149841.31;4980978;28;20234;-59
2023/09/02 06:27:17;;;;;;;3.37;1.60;;;;;;;15.03;100.00;149858.81;4982898;28;20229;-58
2023/09/02 06:29:44;;;;;;;3.87;1.43;;;;;;;15.07;100.00;149868.81;4980782;28;20242;-59
2023/09/02 06:32:11;;;;;;;2.10;1.40;;;;;;;15.08;100.00;149870.09;4983721;28;20277;-60
2023/09/02 06:34:39;;;;;;;1.83;1.57;;;;;;;15.18;100.00;149896.28;4980654;28;20701;-59
2023/09/02 06:37:06;;;;;;;4.10;1.43;;;;;;;15.23;100.00;149906.28;4983756;28;20240;-59
2023/09/02 06:39:32;;;;;;;3.17;1.43;;;;;;;15.28;100.00;149920.06;4985602;28;20690;-60
2023/09/02 06:41:59;;;;;;;5.33;1.80;;;;;;;15.40;100.00;149948.75;4986833;28;20238;-59
2023/09/02 06:44:29;;;;;;;3.40;1.90;;;;;;;15.53;100.00;149978.75;4987489;28;20215;-59
2023/09/02 06:46:56;;;;;;;3.87;1.73;;;;;;;15.69;100.00;150018.75;4967689;28;20242;-59
2023/09/02 06:49:23;;;;;;;4.30;2.10;;;;;;;15.78;100.00;150041.22;4985596;28;20224;-60
2023/09/02 06:51:51;;;;;;;4.17;2.17;;;;;;;15.92;100.00;150073.72;4983883;28;20232;-59
2023/09/02 06:54:17;;;;;;;2.73;1.50;;;;;;;15.98;100.00;150088.72;4987325;28;20246;-60
2023/09/02 06:56:45;;;;;;;6.50;2.10;;;;;;;16.13;100.00;150125.00;4983888;28;20230;-59
2023/09/02 06:59:11;;;;;;;3.33;2.30;;;;;;;16.28;100.00;150160.00;4986238;28;20306;-60
2023/09/02 07:01:38;;;;;;;7.03;2.90;;;;;;;16.43;100.00;150196.22;4983569;28;20239;-58
2023/09/02 07:04:04;;;;;;;4.07;2.53;;;;;;;16.52;100.00;150218.72;4987366;28;20240;-59
2023/09/02 07:06:33;;;;;;;2.80;1.87;;;;;;;16.72;100.00;150267.47;4985019;28;20307;-59
2023/09/02 07:09:02;;;;;;;4.37;2.30;;;;;;;16.84;100.00;150296.25;4986738;28;20575;-59
2023/09/02 07:11:33;;;;;;;5.30;2.63;;;;;;;16.70;100.00;150261.22;4984695;28;20741;-59
2023/09/02 07:14:00;;;;;;;4.80;2.60;;;;;;;16.88;100.00;150306.25;4987446;28;20235;-60
2023/09/02 07:16:27;;;;;;;5.33;2.80;;;;;;;16.99;100.00;150331.25;4986419;28;20585;-60
2023/09/02 07:18:53;;;;;;;6.47;3.00;;;;;;;17.13;100.00;150365.06;4984009;28;20330;-60
2023/09/02 07:21:22;;;;;;;5.50;3.00;;;;;;;17.07;100.00;150352.53;4958904;28;20571;-60
2023/09/02 07:23:49;;;;;;;5.17;2.30;;;;;;;17.20;100.00;150383.78;4984396;28;20229;-60
2023/09/02 07:26:18;;;;;;;4.20;2.50;;;;;;;17.24;100.00;150392.56;4987267;28;20240;-60
2023/09/02 07:28:44;;;;;;;4.27;2.53;;;;;;;17.32;100.00;150411.31;4984344;28;20248;-60
2023/09/02 07:31:11;;;;;;;3.20;2.23;;;;;;;17.58;100.00;150473.84;4984863;28;20225;-60
2023/09/02 07:33:38;;;;;;;6.77;2.60;;;;;;;17.76;100.00;150518.88;4983893;28;20227;-60
2023/09/02 07:36:08;;;;;;;3.70;2.50;;;;;;;17.81;100.00;150530.13;4986840;28;20233;-60
2023/09/02 07:38:34;;;;;;;4.23;2.73;;;;;;;17.87;100.00;150543.91;4984712;28;20238;-60
2023/09/02 07:41:01;;;;;;;4.30;2.10;;;;;;;17.96;100.00;150567.66;4987074;28;20244;-60
2023/09/02 07:43:29;;;;;;;6.37;2.40;;;;;;;17.97;100.00;150568.94;4986696;28;20336;-60
2023/09/02 07:45:56;;;;;;;4.80;2.33;;;;;;;18.09;100.00;150597.75;4983789;28;20585;-60
2023/09/02 07:48:23;;;;;;;3.70;2.47;;;;;;;18.20;100.00;150624.00;4988627;28;20221;-60
2023/09/02 07:50:50;;;;;;;3.73;2.43;;;;;;;18.33;100.00;150656.53;4984575;28;20225;-60
2023/09/02 07:53:17;;;;;;;3.20;2.40;;;;;;;18.45;100.00;150685.34;4987227;28;20713;-60
2023/09/02 07:55:43;;;;;;;3.93;2.27;;;;;;;18.47;100.00;150689.06;4982295;28;20225;-60
2023/09/02 07:58:10;;;;;;;6.30;2.57;;;;;;;18.40;100.00;150674.06;4986138;28;20234;-60
2023/09/02 08:00:38;;;;;;;3.30;2.27;;;;;;;18.46;100.00;150686.56;4964443;28;20253;-60
2023/09/02 08:03:05;;;;;;;4.70;1.97;;;;;;;18.45;100.00;150685.34;4984483;28;20220;-60
2023/09/02 08:05:32;;;;;;;5.53;2.50;;;;;;;18.33;100.00;150656.53;4973203;28;20745;-60
2023/09/02 08:07:59;;;;;;;6.47;2.07;;;;;;;18.33;100.00;150655.31;4984909;28;20290;-60
2023/09/02 08:10:26;;;;;;;2.60;2.00;;;;;;;18.43;100.00;150681.56;4986030;28;20217;-60
2023/09/02 08:12:52;;;;;;;3.47;2.17;;;;;;;18.59;100.00;150719.13;4983214;28;20345;-60
2023/09/02 08:15:19;;;;;;;4.27;2.20;;;;;;;18.64;100.00;150730.38;4984547;28;20717;-60
2023/09/02 08:17:47;;;;;;;4.43;2.13;;;;;;;18.61;100.00;150724.13;4967922;28;20562;-60
2023/09/02 08:20:14;;;;;;;6.83;2.50;;;;;;;18.69;100.00;150742.88;4984675;28;20235;-60
2023/09/02 08:22:43;;;;;;;3.33;2.10;;;;;;;18.69;100.00;150744.16;4982813;28;20236;-59
2023/09/02 08:25:09;;;;;;;3.07;2.00;;;;;;;18.76;100.00;150760.41;4985202;28;20311;-60
2023/09/02 08:27:36;;;;;;;3.50;2.20;;;;;;;18.81;100.00;150772.94;4983372;28;20232;-61
2023/09/02 08:30:04;;;;;;;3.10;2.37;;;;;;;18.91;100.00;150795.47;4986177;28;20717;-60
2023/09/02 08:32:31;;;;;;;4.13;2.20;;;;;;;18.93;100.00;150801.75;4984774;28;20775;-60
2023/09/02 08:34:59;;;;;;;4.97;2.20;;;;;;;19.03;100.00;150825.56;4983212;28;20239;-60
2023/09/02 08:37:25;;;;;;;3.00;1.87;;;;;;;19.06;100.00;150833.06;4986028;28;20232;-60
2023/09/02 08:39:52;;;;;;;3.73;2.10;;;;;;;19.10;100.00;150841.81;4982958;28;20332;-60
2023/09/02 08:42:19;;;;;;;4.40;2.00;;;;;;;19.15;100.00;150854.34;4985767;28;20237;-60
2023/09/02 08:44:47;;;;;;;3.90;2.30;;;;;;;19.10;100.00;150841.81;4982683;28;20237;-60
2023/09/02 08:47:16;;;;;;;3.37;2.10;;;;;;;19.20;100.00;150865.63;4967481;28;20235;-59
2023/09/02 08:49:43;;;;;;;3.30;2.00;;;;;;;19.22;100.00;150871.88;4982419;28;20233;-60
2023/09/02 08:52:12;;;;;;;3.40;1.87;;;;;;;19.39;100.00;150911.94;4985900;28;20234;-60
2023/09/02 08:54:40;;;;;;;4.10;2.10;;;;;;;19.49;100.00;150935.75;4982443;28;20342;-60
2023/09/02 08:57:07;;;;;;;5.37;2.43;;;;;;;19.53;100.00;150947.00;4985786;28;20680;-60
2023/09/02 08:59:34;;;;;;;6.77;2.03;;;;;;;19.63;100.00;150970.78;4983186;28;20253;-60
2023/09/02 09:02:01;;;;;;;3.37;1.93;;;;;;;19.78;100.00;151007.13;4984142;28;20600;-59
2023/09/02 09:04:32;;;;;;;3.10;2.00;;;;;;;19.84;100.00;151022.16;4984368;28;20232;-60
2023/09/02 09:07:01;;;;;;;3.23;2.20;;;;;;;19.84;100.00;151022.16;4983238;28;20221;-59
2023/09/02 09:09:30;;;;;;;3.40;2.30;;;;;;;19.95;100.00;151048.47;4984632;28;20592;-60
2023/09/02 09:11:58;;;;;;;5.77;3.13;;;;;;;19.99;100.00;151057.28;4982174;28;20265;-60
2023/09/02 09:14:30;;;;;;;3.80;2.10;;;;;;;20.15;100.00;151097.31;4984113;28;20224;-59
2023/09/02 09:16:59;;;;;;;6.00;2.20;;;;;;;20.17;100.00;151102.31;4980011;28;20245;-59
2023/09/02 09:19:26;;;;;;;3.90;2.10;;;;;;;20.33;100.00;151141.19;4982706;28;20213;-59
2023/09/02 09:21:54;;;;;;;2.57;1.60;;;;;;;20.30;97.76;151133.69;4981083;28;20255;-59
2023/09/02 09:24:21;;;;;;;2.80;1.87;;;;;;;20.44;98.01;151166.25;4984641;28;20228;-59
2023/09/02 09:26:50;;;;;;;5.97;2.20;;;;;;;20.44;97.69;151167.47;4980869;28;20229;-60
2023/09/02 09:29:20;;;;;;;2.97;2.23;;;;;;;20.49;98.68;151180.00;4984714;28;20755;-60
2023/09/02 09:31:48;;;;;;;4.67;2.00;;;;;;;20.55;98.49;151192.53;4979653;28;20253;-60
2023/09/02 09:34:15;;;;;;;5.47;2.17;;;;;;;20.59;98.33;151202.56;4984168;28;20235;-60
2023/09/02 09:36:43;;;;;;;4.20;2.20;;;;;;;20.62;97.79;151211.38;4982151;28;20232;-60
2023/09/02 09:39:10;;;;;;;3.37;2.20;;;;;;;20.83;95.75;151260.25;4983790;28;20237;-60
2023/09/02 09:41:46;;;;;;;5.33;2.53;;;;;;;20.81;95.24;151255.25;4981522;28;20226;-60
2023/09/02 09:44:16;;;;;;;5.53;2.53;;;;;;;20.90;95.91;151279.03;4984566;28;20243;-59
2023/09/02 09:46:48;;;;;;;5.17;2.37;;;;;;;21.06;96.71;151317.94;4980787;28;20231;-60
2023/09/02 09:49:22;;;;;;;3.40;2.30;;;;;;;21.07;95.01;151319.16;4983496;28;20622;-60
2023/09/02 09:51:50;;;;;;;5.77;2.70;;;;;;;21.09;96.51;151324.16;4981921;28;20218;-60
2023/09/02 09:54:17;;;;;;;3.37;2.20;;;;;;;21.20;94.69;151350.50;4984454;28;20241;-60
2023/09/02 09:56:44;;;;;;;5.87;2.57;;;;;;;21.30;94.19;151374.31;4979626;28;20262;-60
2023/09/02 09:59:11;;;;;;;5.20;2.60;;;;;;;21.35;91.84;151388.06;4984480;28;20246;-60
2023/09/02 10:01:39;;;;;;;3.53;2.33;;;;;;;21.46;92.05;151414.44;4981150;28;20215;-60
2023/09/02 10:04:08;;;;;;;3.03;2.13;;;;;;;21.49;92.14;151420.66;4983207;28;20230;-60
2023/09/02 10:06:37;;;;;;;6.00;2.40;;;;;;;21.47;91.36;151415.66;4980065;28;20282;-61
2023/09/02 10:09:04;;;;;;;5.67;2.30;;;;;;;21.57;92.34;151440.72;4983696;28;20231;-60
2023/09/02 10:11:35;;;;;;;4.70;2.20;;;;;;;21.63;90.94;151455.81;4981783;28;20259;-61
2023/09/02 10:14:02;;;;;;;3.92;2.22;;;;;;;21.76;92.80;151485.91;4987035;28;20835;-61
2023/09/02 10:16:35;;;;;;;7.50;2.60;;;;;;;21.77;90.13;151489.66;4984148;28;20320;-61
2023/09/02 10:19:04;;;;;;;3.33;2.53;;;;;;;21.89;89.05;151517.25;4987543;28;20253;-61
2023/09/02 10:21:36;;;;;;;3.70;2.40;;;;;;;22.00;88.57;151543.59;4983794;28;20249;-60
2023/09/02 10:24:06;;;;;;;5.47;2.70;;;;;;;22.09;90.40;151567.41;4987820;28;20580;-60
2023/09/02 10:26:37;;;;;;;4.07;2.20;;;;;;;22.28;90.37;151612.56;4985043;28;20303;-60
2023/09/02 10:29:08;;;;;;;4.43;2.30;;;;;;;22.32;86.71;151622.59;4986615;28;20281;-60
2023/09/02 10:31:39;;;;;;;3.40;2.40;;;;;;;22.44;86.78;151651.47;4984450;28;20746;-61
2023/09/02 10:34:14;;;;;;;7.27;3.13;;;;;;;22.58;86.46;151684.09;4986417;28;20242;-61
2023/09/02 10:36:51;;;;;;;3.57;2.53;;;;;;;22.61;85.85;151692.91;4988775;28;20259;-60
2023/09/02 10:39:25;;;;;;;5.23;2.00;;;;;;;22.77;83.94;151730.53;4987754;28;20240;-60
2023/09/02 10:41:54;;;;;;;3.83;2.50;;;;;;;22.89;82.97;151759.38;4983031;28;20241;-61
2023/09/02 10:44:22;;;;;;;4.17;2.10;;;;;;;23.00;85.19;151788.19;4987496;28;20257;-61
2023/09/02 10:46:50;;;;;;;5.30;2.10;;;;;;;23.03;82.26;151794.50;4983853;28;20230;-61
2023/09/02 10:49:18;;;;;;;3.87;2.20;;;;;;;22.99;79.30;151784.47;4986234;28;20239;-61
2023/09/02 10:51:45;;;;;;;3.93;2.03;;;;;;;23.03;79.68;151794.50;4984570;28;20243;-59
2023/09/02 10:54:12;;;;;;;3.80;2.00;;;;;;;23.07;79.28;151804.53;4986404;28;20700;-60
2023/09/02 10:56:38;;;;;;;4.93;2.13;;;;;;;23.23;80.62;151842.22;4984812;28;20226;-60
2023/09/02 10:59:06;;;;;;;3.77;2.50;;;;;;;23.36;78.64;151874.81;4987805;28;20232;-60
2023/09/02 11:01:44;;;;;;;9.17;2.53;;;;;;;23.40;77.90;151883.63;4983611;28;20590;-60
2023/09/02 11:04:11;;;;;;;3.63;1.77;;;;;;;23.51;79.75;151911.25;4986151;28;20333;-60
2023/09/02 11:07:17;;;;;;;3.63;2.00;;;;;;;23.67;79.31;151950.13;4984370;28;20231;-60
2023/09/02 11:09:50;;;;;;;4.97;2.87;;;;;;;23.73;76.22;151965.19;4984622;28;20240;-60
2023/09/02 11:12:16;;;;;;;3.93;2.70;;;;;;;23.77;76.87;151972.72;4987272;28;20229;-59
2023/09/02 11:15:16;;;;;;;4.57;2.57;;;;;;;23.93;74.28;152012.88;4984745;28;20231;-60
2023/09/02 11:17:43;;;;;;;4.07;2.20;;;;;;;24.01;73.78;152031.75;4983515;28;20224;-60
2023/09/02 11:20:11;;;;;;;4.40;2.20;;;;;;;24.06;71.52;152044.31;4987930;28;20231;-60
2023/09/02 11:22:53;;;;;;;4.53;2.30;;;;;;;24.12;72.13;152058.13;4984184;28;20246;-60
2023/09/02 11:25:31;;;;;;;2.97;2.37;;;;;;;24.17;74.51;152070.69;4985438;28;20229;-60